CYBV

Berens River Airport

Berens River, Manitoba, Canada
METAR CYBV 202100Z 31013KT 15SM SCT055 SCT080 BKN220 24/16 A3005 RMK SC3AC1CS1 LAST STFD OBS/NEXT 231200UTC SLP182 DENSITY ALT 1800FT
Observed Flight Rules
Jul-20 @ 21:00 UTC (7 hours ago) Visual Flight Rules
Wind Visibility Clouds
310° at 13 knots 15 miles
  • Scattered at 5,500' AGL
  • Scattered at 8,000' AGL
  • Broken at 22,000' AGL
Temperatures Readings
Current 24°C / 75°F
Dewpoint 16°C / 61°F
Humidity 61%
Altimeter 30.05" Hg
Pressure 1018.2 hPa
Elevation 222
METAR CYBV 202100Z 31013KT 15SM SCT055 SCT080 BKN220 24/16 A3005 RMK SC3AC1CS1 LAST STFD OBS/NEXT 231200UTC SLP182 DENSITY ALT 1800FT
Observed Flight Rules
Jul-20 @ 21:00 UTC
(7 hours ago)
VFR
Wind Visibility
310° at 13 knots 15 miles
Clouds
  • Scattered at 5,500' AGL
  • Scattered at 8,000' AGL
  • Broken at 22,000' AGL
Temperature Dewpoint
24°C / 75°F 16°C / 61°F
Humidity Altimeter Pressure
61% 30.05" Hg 1018.2 hPa